Time;durP1;ratioP1;P1;durP2;ratioP2;P2;SDS_P1;SDS_P2;PMS_P1;PMS_P2;Temp;Humidity;BMP_temperature;BMP_pressure;BME280_temperature;BME280_humidity;BME280_pressure;Samples;Min_cycle;Max_cycle;Signal;HPM_P1;HPM_P2
2021/10/10 00:03:14;;;;;;;;;;;;;;;;;;10395089;28;20038;-68
2021/10/10 00:08:17;;;;;;;19.03;7.07;;;;;;;;;;10392728;28;19922;-68
2021/10/10 00:13:21;;;;;;;20.70;6.60;;;;;;;;;;10403309;28;20034;-69
2021/10/10 00:18:23;;;;;;;;;;;;;;;;;;10396708;28;20513;-68
2021/10/10 00:23:26;;;;;;;20.80;7.73;;;;;;;;;;10402780;28;20390;-66
2021/10/10 00:28:30;;;;;;;27.43;8.53;;;;;;;;;;10397090;28;20089;-68
2021/10/10 00:33:33;;;;;;;;;;;;;;;;;;10391235;28;20046;-68
2021/10/10 00:38:37;;;;;;;18.67;8.33;;;;;;;;;;10392905;28;20055;-67
2021/10/10 00:43:41;;;;;;;16.57;7.27;;;;;;;;;;10396736;28;20080;-70
2021/10/10 00:48:44;;;;;;;;;;;;;;;;;;10399468;28;20056;-71
2021/10/10 00:53:47;;;;;;;20.40;7.97;;;;;;;;;;10397000;28;19968;-69
2021/10/10 00:58:52;;;;;;;24.30;8.98;;;;;;;;;;10390449;28;20124;-69
2021/10/10 01:03:54;;;;;;;21.53;8.47;;;;;;;;;;10399270;28;20041;-69
2021/10/10 01:08:57;;;;;;;24.83;8.83;;;;;;;;;;10387417;28;20506;-66
2021/10/10 01:14:02;;;;;;;21.90;7.97;;;;;;;;;;10395386;28;20049;-68
2021/10/10 01:19:09;;;;;;;24.27;8.80;;;;;;;;;;10393995;28;20132;-68
2021/10/10 01:24:18;;;;;;;27.60;9.73;;;;;;;;;;10392920;28;20093;-66
2021/10/10 01:29:41;;;;;;;23.52;8.30;;;;;;;;;;10387953;28;20045;-67
2021/10/10 01:34:48;;;;;;;25.90;9.53;;;;;;;;;;10385248;28;20573;-68
2021/10/10 01:39:52;;;;;;;25.85;9.52;;;;;;;;;;10393155;28;20116;-68
2021/10/10 01:44:56;;;;;;;24.80;8.97;;;;;;;;;;10391301;28;20061;-68
2021/10/10 01:49:58;;;;;;;22.83;8.83;;;;;;;;;;10398397;28;20057;-68
2021/10/10 01:55:03;;;;;;;21.20;7.83;;;;;;;;;;10381654;28;20046;-68
2021/10/10 02:00:06;;;;;;;22.07;8.27;;;;;;;;;;10392390;28;20057;-69
2021/10/10 02:05:10;;;;;;;22.93;8.33;;;;;;;;;;10390533;28;20045;-68
2021/10/10 02:10:14;;;;;;;25.40;9.00;;;;;;;;;;10396378;28;20053;-68
2021/10/10 02:15:16;;;;;;;;;;;;;;;;;;10386367;28;20038;-69
2021/10/10 02:20:20;;;;;;;22.83;8.10;;;;;;;;;;10393930;28;19928;-69
2021/10/10 02:25:24;;;;;;;25.77;10.00;;;;;;;;;;10385745;28;20065;-68
2021/10/10 02:30:27;;;;;;;28.83;9.63;;;;;;;;;;10389670;28;20112;-68
2021/10/10 02:35:30;;;;;;;23.83;9.60;;;;;;;;;;10387099;28;20127;-69
2021/10/10 02:40:34;;;;;;;27.47;9.23;;;;;;;;;;10396670;28;20124;-68
2021/10/10 02:45:38;;;;;;;28.93;10.67;;;;;;;;;;10394360;28;20072;-67
2021/10/10 02:50:40;;;;;;;31.13;10.77;;;;;;;;;;10390230;28;20129;-68
2021/10/10 02:55:44;;;;;;;29.77;10.30;;;;;;;;;;10385759;28;20042;-68
2021/10/10 03:00:47;;;;;;;;;;;;;;;;;;10395134;28;20121;-67
2021/10/10 03:05:50;;;;;;;32.67;10.43;;;;;;;;;;10389668;28;19947;-69
2021/10/10 03:10:54;;;;;;;27.87;9.23;;;;;;;;;;10387438;28;20053;-68
2021/10/10 03:15:57;;;;;;;25.17;9.27;;;;;;;;;;10383577;28;20413;-68
2021/10/10 03:21:00;;;;;;;24.70;9.33;;;;;;;;;;10387967;28;20095;-66
2021/10/10 03:26:04;;;;;;;26.33;9.23;;;;;;;;;;10383483;28;20048;-68
2021/10/10 03:31:07;;;;;;;;;;;;;;;;;;10386405;28;20556;-68
2021/10/10 03:36:10;;;;;;;22.40;8.50;;;;;;;;;;10387882;28;19935;-68
2021/10/10 03:41:14;;;;;;;30.57;10.57;;;;;;;;;;10393437;28;20165;-69
2021/10/10 03:46:17;;;;;;;;;;;;;;;;;;10386620;28;20131;-69
2021/10/10 03:51:20;;;;;;;24.47;9.57;;;;;;;;;;10393354;28;20285;-68
2021/10/10 03:56:24;;;;;;;29.53;10.37;;;;;;;;;;10381210;28;20049;-68
2021/10/10 04:01:27;;;;;;;29.57;10.30;;;;;;;;;;10388475;28;20125;-68
2021/10/10 04:06:30;;;;;;;27.75;10.13;;;;;;;;;;10390057;28;20041;-68
2021/10/10 04:11:35;;;;;;;31.77;10.07;;;;;;;;;;10389872;28;20065;-69
2021/10/10 04:16:37;;;;;;;;;;;;;;;;;;10392921;28;20103;-67
2021/10/10 04:21:40;;;;;;;27.07;9.53;;;;;;;;;;10395056;28;20028;-67
2021/10/10 04:26:44;;;;;;;25.50;10.43;;;;;;;;;;10387645;28;20038;-65
2021/10/10 04:31:47;;;;;;;;;;;;;;;;;;10386707;28;20061;-69
2021/10/10 04:36:50;;;;;;;27.23;9.87;;;;;;;;;;10381237;28;19921;-67
2021/10/10 04:41:54;;;;;;;27.43;11.00;;;;;;;;;;10391777;28;20521;-68
2021/10/10 04:46:57;;;;;;;;;;;;;;;;;;10388022;28;20061;-67
2021/10/10 04:52:01;;;;;;;29.37;10.27;;;;;;;;;;10396136;28;19952;-68
2021/10/10 04:57:05;;;;;;;28.25;10.15;;;;;;;;;;10393935;28;20056;-68
2021/10/10 05:02:08;;;;;;;29.17;11.23;;;;;;;;;;10399411;28;20044;-67
2021/10/10 05:07:11;;;;;;;26.33;10.53;;;;;;;;;;10389772;28;20490;-68
2021/10/10 05:12:15;;;;;;;25.07;9.23;;;;;;;;;;10394385;28;20390;-69
2021/10/10 05:17:18;;;;;;;;;;;;;;;;;;10397025;28;20041;-70
2021/10/10 05:22:21;;;;;;;25.97;10.33;;;;;;;;;;10392781;28;20008;-69
2021/10/10 05:27:25;;;;;;;22.47;10.10;;;;;;;;;;10389193;28;20053;-69
2021/10/10 05:32:28;;;;;;;26.23;9.57;;;;;;;;;;10398371;28;20568;-69
2021/10/10 05:37:31;;;;;;;26.07;10.17;;;;;;;;;;10391387;28;20140;-70
2021/10/10 05:42:35;;;;;;;27.23;9.97;;;;;;;;;;10392188;28;20501;-69
2021/10/10 05:47:38;;;;;;;;;;;;;;;;;;10403058;28;20072;-67
2021/10/10 05:52:41;;;;;;;24.80;9.37;;;;;;;;;;10393352;28;20157;-69
2021/10/10 05:57:45;;;;;;;22.20;9.13;;;;;;;;;;10392272;28;20041;-70
2021/10/10 06:02:49;;;;;;;21.70;9.33;;;;;;;;;;10401857;28;20428;-66
2021/10/10 06:07:52;;;;;;;19.08;8.88;;;;;;;;;;10385544;28;20075;-69
2021/10/10 06:12:56;;;;;;;43.83;14.48;;;;;;;;;;10391801;28;20096;-68
2021/10/10 06:17:59;;;;;;;29.90;11.45;;;;;;;;;;10389575;28;20424;-69
2021/10/10 06:23:02;;;;;;;22.20;9.80;;;;;;;;;;10391861;28;20049;-71
2021/10/10 06:28:06;;;;;;;20.90;9.93;;;;;;;;;;10390595;28;20037;-69
2021/10/10 06:33:12;;;;;;;23.00;10.18;;;;;;;;;;10396657;28;20068;-69
2021/10/10 06:38:14;;;;;;;19.90;9.93;;;;;;;;;;10390695;28;20096;-70
2021/10/10 06:43:19;;;;;;;23.10;11.00;;;;;;;;;;10391816;28;20151;-68
2021/10/10 06:48:22;;;;;;;20.10;9.70;;;;;;;;;;10386190;28;20418;-69
2021/10/10 06:53:25;;;;;;;21.50;10.27;;;;;;;;;;10386320;28;20397;-70
2021/10/10 06:58:29;;;;;;;16.38;9.52;;;;;;;;;;10389008;28;20388;-69
2021/10/10 07:03:32;;;;;;;19.88;9.65;;;;;;;;;;10388903;28;20044;-69
2021/10/10 07:08:35;;;;;;;18.75;10.13;;;;;;;;;;10391004;28;20042;-69
2021/10/10 07:13:39;;;;;;;17.30;9.32;;;;;;;;;;10389781;28;20046;-70
2021/10/10 07:18:45;;;;;;;19.85;9.65;;;;;;;;;;10397442;28;20054;-69
2021/10/10 07:24:08;;;;;;;17.90;9.35;;;;;;;;;;10383656;28;20454;-69
2021/10/10 07:29:12;;;;;;;16.58;9.88;;;;;;;;;;10388486;28;20037;-69
2021/10/10 07:34:15;;;;;;;17.27;10.30;;;;;;;;;;10392499;28;20038;-67
2021/10/10 07:39:18;;;;;;;18.65;10.02;;;;;;;;;;10386705;28;20081;-68
2021/10/10 07:44:24;;;;;;;19.88;10.07;;;;;;;;;;10394968;28;20037;-71
2021/10/10 07:49:26;;;;;;;18.95;10.65;;;;;;;;;;10387651;28;20119;-69
2021/10/10 07:54:30;;;;;;;18.92;11.38;;;;;;;;;;10382599;28;20073;-68
2021/10/10 07:59:34;;;;;;;24.13;10.75;;;;;;;;;;10394236;28;20107;-72
2021/10/10 08:04:37;;;;;;;22.55;12.23;;;;;;;;;;10395254;28;20462;-69
2021/10/10 08:09:39;;;;;;;18.27;10.65;;;;;;;;;;10391602;28;20072;-69
2021/10/10 08:14:44;;;;;;;19.98;11.30;;;;;;;;;;10402158;28;20510;-72
2021/10/10 08:19:46;;;;;;;17.17;10.70;;;;;;;;;;10402571;28;20128;-72
2021/10/10 08:24:49;;;;;;;19.40;12.02;;;;;;;;;;10398273;28;20046;-71
2021/10/10 08:29:53;;;;;;;17.67;10.68;;;;;;;;;;10403562;28;20350;-72
2021/10/10 08:34:56;;;;;;;17.67;11.07;;;;;;;;;;10396204;28;20045;-72
2021/10/10 08:39:59;;;;;;;17.75;10.52;;;;;;;;;;10401808;28;20086;-73
2021/10/10 08:45:06;;;;;;;16.17;9.73;;;;;;;;;;10391364;28;20051;-73
2021/10/10 08:50:13;;;;;;;18.98;11.80;;;;;;;;;;10394599;28;20049;-70
2021/10/10 08:55:16;;;;;;;20.20;10.20;;;;;;;;;;10391898;28;20041;-71
2021/10/10 09:00:23;;;;;;;16.63;10.13;;;;;;;;;;10400570;28;20045;-73
2021/10/10 09:05:26;;;;;;;18.30;12.02;;;;;;;;;;10398187;28;20501;-71
2021/10/10 09:10:32;;;;;;;16.17;10.13;;;;;;;;;;10396414;28;20033;-71
2021/10/10 09:15:37;;;;;;;20.27;11.43;;;;;;;;;;10394974;28;20113;-69
2021/10/10 09:20:41;;;;;;;17.42;11.32;;;;;;;;;;10399215;28;20037;-71
2021/10/10 09:25:53;;;;;;;19.00;10.93;;;;;;;;;;10382182;28;20077;-71
2021/10/10 09:30:59;;;;;;;18.42;11.93;;;;;;;;;;10390232;28;20077;-72
2021/10/10 09:36:03;;;;;;;20.17;11.02;;;;;;;;;;10394358;28;20614;-73
2021/10/10 09:41:14;;;;;;;18.40;11.00;;;;;;;;;;10386915;28;20091;-70
2021/10/10 09:46:24;;;;;;;15.73;10.70;;;;;;;;;;10393392;28;20326;-71
2021/10/10 09:51:37;;;;;;;21.00;11.70;;;;;;;;;;10392648;28;20960;-73
2021/10/10 09:56:39;;;;;;;19.25;12.27;;;;;;;;;;10390227;28;20490;-73
2021/10/10 10:01:44;;;;;;;16.05;10.63;;;;;;;;;;10391108;28;20050;-68
2021/10/10 10:06:47;;;;;;;17.75;11.07;;;;;;;;;;10393421;28;20096;-68
2021/10/10 10:11:50;;;;;;;19.00;10.85;;;;;;;;;;10400376;28;20050;-65
2021/10/10 10:16:55;;;;;;;19.35;11.45;;;;;;;;;;10385674;28;20046;-68
2021/10/10 10:21:58;;;;;;;18.05;11.48;;;;;;;;;;10393599;28;20053;-66
2021/10/10 10:27:01;;;;;;;20.30;12.23;;;;;;;;;;10386319;28;20135;-69
2021/10/10 10:32:07;;;;;;;20.05;11.90;;;;;;;;;;10395418;28;20114;-68
2021/10/10 10:37:11;;;;;;;21.55;10.40;;;;;;;;;;10385524;28;20048;-69
2021/10/10 10:42:14;;;;;;;15.18;10.50;;;;;;;;;;10388960;28;20044;-68
2021/10/10 10:47:19;;;;;;;18.83;12.02;;;;;;;;;;10388775;28;20125;-68
2021/10/10 10:52:23;;;;;;;16.75;12.00;;;;;;;;;;10387988;28;20060;-71
2021/10/10 10:57:33;;;;;;;16.65;10.65;;;;;;;;;;10376081;28;20391;-71
2021/10/10 11:02:50;;;;;;;19.17;10.98;;;;;;;;;;10396759;28;20042;-71
2021/10/10 11:07:53;;;;;;;17.02;10.88;;;;;;;;;;10388947;28;20041;-71
2021/10/10 11:12:57;;;;;;;18.08;10.80;;;;;;;;;;10390176;28;20041;-72
2021/10/10 11:18:02;;;;;;;18.00;9.80;;;;;;;;;;10392547;28;20046;-71
2021/10/10 11:23:10;;;;;;;15.18;9.98;;;;;;;;;;10393349;28;20045;-71
2021/10/10 11:28:13;;;;;;;13.20;7.60;;;;;;;;;;10397747;28;20413;-70
2021/10/10 11:33:17;;;;;;;14.40;9.52;;;;;;;;;;10395240;28;20076;-70
2021/10/10 11:38:25;;;;;;;17.80;9.95;;;;;;;;;;10391138;28;20049;-69
2021/10/10 11:43:28;;;;;;;15.25;10.60;;;;;;;;;;10394333;28;20049;-70
2021/10/10 11:48:33;;;;;;;16.23;10.07;;;;;;;;;;10404402;28;20053;-70
2021/10/10 11:53:43;;;;;;;13.80;8.07;;;;;;;;;;10400379;28;20037;-72
2021/10/10 11:58:46;;;;;;;12.88;8.40;;;;;;;;;;10392332;28;20449;-70
2021/10/10 12:03:50;;;;;;;13.68;7.97;;;;;;;;;;10395266;28;20084;-70
2021/10/10 12:09:04;;;;;;;13.15;7.35;;;;;;;;;;10395714;28;20048;-70
2021/10/10 12:14:08;;;;;;;13.95;7.35;;;;;;;;;;10387535;28;20150;-70
2021/10/10 12:19:12;;;;;;;15.88;8.80;;;;;;;;;;10388240;28;20061;-69
2021/10/10 12:24:17;;;;;;;15.73;7.68;;;;;;;;;;10394440;28;20045;-66
2021/10/10 12:29:21;;;;;;;14.73;7.90;;;;;;;;;;10390188;28;20120;-69
2021/10/10 12:34:31;;;;;;;13.05;7.20;;;;;;;;;;10384890;28;20451;-68
2021/10/10 12:39:54;;;;;;;14.45;7.55;;;;;;;;;;10383379;28;20121;-70
2021/10/10 12:45:17;;;;;;;11.60;7.40;;;;;;;;;;10401328;28;20042;-70
2021/10/10 12:50:21;;;;;;;11.05;6.40;;;;;;;;;;10396963;28;20104;-70
2021/10/10 12:55:27;;;;;;;13.68;6.90;;;;;;;;;;10395754;28;20041;-69
2021/10/10 13:00:30;;;;;;;17.08;8.23;;;;;;;;;;10394635;28;20525;-71
2021/10/10 13:05:36;;;;;;;10.05;5.22;;;;;;;;;;10370573;28;20044;-70
2021/10/10 13:10:39;;;;;;;11.90;6.75;;;;;;;;;;10380073;28;20366;-70
2021/10/10 13:15:42;;;;;;;11.68;6.50;;;;;;;;;;10396608;28;20054;-70
2021/10/10 13:20:45;;;;;;;;;;;;;;;;;;10397440;28;20029;-68
2021/10/10 13:25:49;;;;;;;14.77;8.35;;;;;;;;;;10394412;28;20023;-69
2021/10/10 13:30:57;;;;;;;13.70;7.50;;;;;;;;;;10393791;28;20051;-70
2021/10/10 13:36:01;;;;;;;12.50;6.75;;;;;;;;;;10393917;28;20038;-68
2021/10/10 13:41:05;;;;;;;8.10;4.15;;;;;;;;;;10383463;28;20049;-70
2021/10/10 13:46:10;;;;;;;11.85;4.97;;;;;;;;;;10391826;28;20045;-67
2021/10/10 13:51:12;;;;;;;11.13;4.95;;;;;;;;;;10393235;28;20041;-71
2021/10/10 13:56:17;;;;;;;15.35;5.45;;;;;;;;;;10392057;28;20041;-70
2021/10/10 14:01:19;;;;;;;12.40;4.68;;;;;;;;;;10398134;28;20444;-68
2021/10/10 14:06:22;;;;;;;;;;;;;;;;;;10394261;28;20053;-72
2021/10/10 14:11:27;;;;;;;10.03;4.93;;;;;;;;;;10399524;28;19921;-71
2021/10/10 14:16:30;;;;;;;8.70;4.57;;;;;;;;;;10384359;28;20044;-70
2021/10/10 14:21:36;;;;;;;10.60;5.07;;;;;;;;;;10386276;28;20045;-69
2021/10/10 14:26:40;;;;;;;11.77;4.82;;;;;;;;;;10396281;28;20044;-68
2021/10/10 14:31:43;;;;;;;12.02;4.93;;;;;;;;;;10395455;28;20051;-66
2021/10/10 14:36:46;;;;;;;12.82;4.60;;;;;;;;;;10386934;28;20091;-67
2021/10/10 14:41:53;;;;;;;9.52;4.82;;;;;;;;;;10396709;28;20459;-68
2021/10/10 14:47:14;;;;;;;11.40;4.60;;;;;;;;;;10389524;28;20104;-69
2021/10/10 14:52:17;;;;;;;10.95;4.93;;;;;;;;;;10399550;28;20037;-69
2021/10/10 14:57:24;;;;;;;10.35;4.35;;;;;;;;;;10390176;28;20033;-69
2021/10/10 15:02:27;;;;;;;13.02;5.43;;;;;;;;;;10393171;28;20041;-69
2021/10/10 15:07:30;;;;;;;13.07;6.68;;;;;;;;;;10390747;28;20416;-71
2021/10/10 15:12:35;;;;;;;13.20;5.72;;;;;;;;;;10382954;28;20129;-70
2021/10/10 15:17:39;;;;;;;22.00;9.38;;;;;;;;;;10396585;28;20076;-70
2021/10/10 15:22:43;;;;;;;12.48;5.90;;;;;;;;;;10387195;28;20041;-69
2021/10/10 15:27:45;;;;;;;;;;;;;;;;;;10388650;28;20328;-69
2021/10/10 15:32:49;;;;;;;12.70;5.72;;;;;;;;;;10393313;28;19976;-71
2021/10/10 15:37:52;;;;;;;15.10;6.47;;;;;;;;;;10376193;28;20034;-68
2021/10/10 15:42:57;;;;;;;11.48;5.45;;;;;;;;;;10388786;28;20044;-69
2021/10/10 15:48:01;;;;;;;15.87;6.20;;;;;;;;;;10381764;28;20585;-69
2021/10/10 15:53:05;;;;;;;14.50;6.25;;;;;;;;;;10394503;28;20038;-67
2021/10/10 15:58:09;;;;;;;10.65;5.38;;;;;;;;;;10393439;28;20040;-71
2021/10/10 16:03:13;;;;;;;15.90;6.30;;;;;;;;;;10384148;28;20045;-68
2021/10/10 16:08:16;;;;;;;13.07;5.93;;;;;;;;;;10387351;28;20037;-69
2021/10/10 16:13:19;;;;;;;13.37;6.73;;;;;;;;;;10386127;28;20513;-68
2021/10/10 16:18:24;;;;;;;12.50;5.90;;;;;;;;;;10391621;28;20077;-66
2021/10/10 16:23:27;;;;;;;10.38;5.70;;;;;;;;;;10385880;28;20132;-68
2021/10/10 16:28:30;;;;;;;13.38;6.75;;;;;;;;;;10374939;28;20109;-69
2021/10/10 16:33:40;;;;;;;17.13;7.32;;;;;;;;;;10380571;28;20041;-70
2021/10/10 16:38:44;;;;;;;15.40;7.75;;;;;;;;;;10390317;28;20486;-68
2021/10/10 16:43:50;;;;;;;16.70;6.80;;;;;;;;;;10386730;28;20056;-68
2021/10/10 16:48:54;;;;;;;14.13;5.97;;;;;;;;;;10391398;28;20054;-70
2021/10/10 16:53:57;;;;;;;19.20;9.25;;;;;;;;;;10381513;28;20066;-69
2021/10/10 16:59:00;;;;;;;17.37;7.17;;;;;;;;;;10395901;28;20103;-67
2021/10/10 17:04:05;;;;;;;18.40;6.47;;;;;;;;;;10392080;28;20069;-69
2021/10/10 17:09:08;;;;;;;12.95;5.90;;;;;;;;;;10392598;28;20042;-69
2021/10/10 17:14:15;;;;;;;11.33;5.50;;;;;;;;;;10395873;28;20045;-68
2021/10/10 17:19:20;;;;;;;12.90;6.32;;;;;;;;;;10392141;28;20100;-71
2021/10/10 17:24:24;;;;;;;16.48;6.20;;;;;;;;;;10387937;28;20049;-68
2021/10/10 17:29:27;;;;;;;12.98;4.95;;;;;;;;;;10393002;28;20084;-68
2021/10/10 17:34:31;;;;;;;8.97;4.27;;;;;;;;;;10391664;28;20506;-69
2021/10/10 17:39:34;;;;;;;17.92;7.03;;;;;;;;;;10390576;28;20049;-69
2021/10/10 17:44:37;;;;;;;14.45;7.05;;;;;;;;;;10390797;28;20484;-69
2021/10/10 17:49:42;;;;;;;19.83;6.60;;;;;;;;;;10395542;28;20655;-71
2021/10/10 17:54:44;;;;;;;16.50;7.03;;;;;;;;;;10391672;28;20049;-70
2021/10/10 17:59:53;;;;;;;20.50;7.38;;;;;;;;;;10393804;28;20061;-66
2021/10/10 18:10:38;;;;;;;15.30;7.47;;;;;;;;;;10384771;28;20120;-68
2021/10/10 18:15:41;;;;;;;22.07;8.10;;;;;;;;;;10384318;28;20050;-69
2021/10/10 18:20:45;;;;;;;23.40;7.43;;;;;;;;;;10393108;28;20116;-69
2021/10/10 18:25:47;;;;;;;;;;;;;;;;;;10382742;28;20460;-68
2021/10/10 18:30:50;;;;;;;22.65;9.10;;;;;;;;;;10387308;28;20227;-68
2021/10/10 18:35:55;;;;;;;23.67;9.10;;;;;;;;;;10392326;28;20399;-68
2021/10/10 18:40:57;;;;;;;23.23;7.80;;;;;;;;;;10390423;28;20536;-68
2021/10/10 18:46:00;;;;;;;18.80;8.45;;;;;;;;;;10389957;28;20083;-68
2021/10/10 18:51:05;;;;;;;21.55;8.73;;;;;;;;;;10390504;28;20698;-69
2021/10/10 18:56:09;;;;;;;22.75;9.70;;;;;;;;;;10391806;28;20064;-68
2021/10/10 19:01:12;;;;;;;22.15;8.57;;;;;;;;;;10384526;28;20068;-70
2021/10/10 19:06:18;;;;;;;19.00;8.00;;;;;;;;;;10386552;28;20034;-69
2021/10/10 19:11:21;;;;;;;20.30;8.38;;;;;;;;;;10390758;28;20037;-68
2021/10/10 19:16:24;;;;;;;27.10;8.98;;;;;;;;;;10389917;28;20050;-69
2021/10/10 19:21:30;;;;;;;23.05;10.27;;;;;;;;;;10387930;28;20100;-68
2021/10/10 19:26:37;;;;;;;25.65;10.05;;;;;;;;;;10382585;28;20415;-68
2021/10/10 19:31:44;;;;;;;23.08;9.90;;;;;;;;;;10389223;28;20398;-66
2021/10/10 19:36:48;;;;;;;28.75;9.65;;;;;;;;;;10387938;28;20041;-68
2021/10/10 19:41:51;;;;;;;27.73;10.57;;;;;;;;;;10397241;28;20042;-67
2021/10/10 19:46:54;;;;;;;21.17;9.10;;;;;;;;;;10386096;28;20486;-69
2021/10/10 19:51:58;;;;;;;23.17;9.70;;;;;;;;;;10392748;28;20120;-69
2021/10/10 19:57:01;;;;;;;;;;;;;;;;;;10387733;28;20120;-69
2021/10/10 20:02:04;;;;;;;25.05;8.50;;;;;;;;;;10383714;28;20012;-69
2021/10/10 20:07:08;;;;;;;21.77;9.43;;;;;;;;;;10384854;28;20129;-69
2021/10/10 20:12:11;;;;;;;14.52;5.68;;;;;;;;;;10398325;28;20540;-70
2021/10/10 20:17:14;;;;;;;10.93;4.13;;;;;;;;;;10400149;28;20033;-68
2021/10/10 20:22:18;;;;;;;27.50;10.60;;;;;;;;;;10400748;28;20046;-69
2021/10/10 20:27:21;;;;;;;;;;;;;;;;;;10400557;28;20111;-69
2021/10/10 20:32:23;;;;;;;27.73;10.02;;;;;;;;;;10398615;28;19929;-68
2021/10/10 20:37:27;;;;;;;21.23;8.45;;;;;;;;;;10398322;28;20160;-69
2021/10/10 20:42:30;;;;;;;19.08;8.35;;;;;;;;;;10399873;28;20125;-69
2021/10/10 20:47:33;;;;;;;27.48;9.70;;;;;;;;;;10397819;28;20045;-68
2021/10/10 20:52:38;;;;;;;28.08;10.65;;;;;;;;;;10398292;28;20073;-68
2021/10/10 20:57:40;;;;;;;;;;;;;;;;;;10389699;28;20137;-68
2021/10/10 21:02:43;;;;;;;23.85;9.60;;;;;;;;;;10401638;28;20497;-66
2021/10/10 21:07:47;;;;;;;26.80;10.63;;;;;;;;;;10398237;28;20038;-67
2021/10/10 21:13:10;;;;;;;26.05;9.18;;;;;;;;;;10391693;28;20042;-70
2021/10/10 21:18:33;;;;;;;25.65;9.98;;;;;;;;;;10395723;28;20049;-69
2021/10/10 21:23:57;;;;;;;28.10;10.60;;;;;;;;;;10395049;28;20463;-68
2021/10/10 21:29:21;;;;;;;27.10;10.05;;;;;;;;;;10398594;28;20488;-69
2021/10/10 21:34:47;;;;;;;25.58;10.38;;;;;;;;;;10393226;28;20049;-68
2021/10/10 21:40:11;;;;;;;20.73;7.00;;;;;;;;;;10398014;28;20490;-70
2021/10/10 21:45:33;;;;;;;26.48;10.57;;;;;;;;;;10391249;28;20033;-70
2021/10/10 21:50:54;;;;;;;15.37;6.60;;;;;;;;;;10398981;28;20129;-70
2021/10/10 21:56:17;;;;;;;24.27;10.50;;;;;;;;;;10384749;28;20045;-68
2021/10/10 22:01:38;;;;;;;27.10;9.53;;;;;;;;;;10389000;28;20041;-69
2021/10/10 22:06:42;;;;;;;26.63;9.90;;;;;;;;;;10383582;28;20552;-69
2021/10/10 22:11:47;;;;;;;27.90;10.13;;;;;;;;;;10388511;28;20093;-67
2021/10/10 22:16:50;;;;;;;12.83;5.47;;;;;;;;;;10386551;28;20120;-68
2021/10/10 22:22:00;;;;;;;29.58;10.82;;;;;;;;;;10386471;28;20476;-67
2021/10/10 22:27:10;;;;;;;31.53;11.60;;;;;;;;;;10380597;28;20123;-67
2021/10/10 22:32:13;;;;;;;25.63;10.60;;;;;;;;;;10391215;28;20041;-65
2021/10/10 22:37:15;;;;;;;25.92;9.95;;;;;;;;;;10390307;28;20112;-66
2021/10/10 22:42:21;;;;;;;12.93;6.05;;;;;;;;;;10392842;28;20131;-68
2021/10/10 22:47:23;;;;;;;;;;;;;;;;;;10388692;28;20532;-67
2021/10/10 22:52:26;;;;;;;26.50;10.07;;;;;;;;;;10392273;28;19968;-68
2021/10/10 22:57:31;;;;;;;23.87;10.73;;;;;;;;;;10388129;28;20091;-68
2021/10/10 23:02:34;;;;;;;29.60;10.63;;;;;;;;;;10390818;28;20061;-68
2021/10/10 23:07:37;;;;;;;27.67;9.70;;;;;;;;;;10390361;28;20045;-68
2021/10/10 23:12:41;;;;;;;26.93;10.30;;;;;;;;;;10392814;28;20513;-68
2021/10/10 23:17:44;;;;;;;;;;;;;;;;;;10395371;28;20041;-66
2021/10/10 23:22:47;;;;;;;29.30;10.20;;;;;;;;;;10394956;28;19975;-68
2021/10/10 23:27:52;;;;;;;27.35;10.25;;;;;;;;;;10388913;28;20103;-68
2021/10/10 23:32:55;;;;;;;26.23;9.40;;;;;;;;;;10391432;28;20176;-68
2021/10/10 23:37:58;;;;;;;26.07;9.53;;;;;;;;;;10386964;28;20520;-67
2021/10/10 23:43:03;;;;;;;22.40;8.77;;;;;;;;;;10395317;28;20038;-69
2021/10/10 23:48:06;;;;;;;29.97;10.83;;;;;;;;;;10396202;28;20837;-67
2021/10/10 23:53:10;;;;;;;24.70;9.65;;;;;;;;;;10403597;28;20037;-68
2021/10/10 23:58:14;;;;;;;24.50;9.97;;;;;;;;;;10392247;28;20041;-67
